Time;durP1;ratioP1;P1;durP2;ratioP2;P2;SDS_P1;SDS_P2;PMS_P1;PMS_P2;Temp;Humidity;BMP_temperature;BMP_pressure;BME280_temperature;BME280_humidity;BME280_pressure;Samples;Min_cycle;Max_cycle;Signal;HPM_P1;HPM_P2
2022/03/24 00:00:50;;;;;;;54.33;27.77;;;;;;;11.95;25.40;102349.84;5090183;28;20076;-73
2022/03/24 00:03:17;;;;;;;55.60;26.38;;;;;;;11.78;25.50;102360.19;5075870;28;20053;-74
2022/03/24 00:05:48;;;;;;;52.72;26.50;;;;;;;11.84;25.63;102348.91;5074254;28;20041;-74
2022/03/24 00:08:15;;;;;;;47.53;26.05;;;;;;;11.88;25.54;102346.81;5077751;28;20055;-73
2022/03/24 00:10:41;;;;;;;51.60;26.23;;;;;;;11.96;25.61;102348.84;5073230;28;20068;-73
2022/03/24 00:13:08;;;;;;;52.67;27.35;;;;;;;11.84;25.55;102348.91;5073296;28;20102;-73
2022/03/24 00:15:35;;;;;;;51.20;26.52;;;;;;;11.70;25.88;102349.22;5080713;28;20097;-74
2022/03/24 00:18:02;;;;;;;54.72;27.80;;;;;;;11.64;25.80;102353.22;5093781;28;20451;-74
2022/03/24 00:20:28;;;;;;;53.75;27.92;;;;;;;11.69;25.84;102355.59;5094360;28;20075;-75
2022/03/24 00:22:55;;;;;;;53.88;27.27;;;;;;;11.71;25.98;102340.16;5094039;28;20115;-74
2022/03/24 00:25:21;;;;;;;53.58;25.35;;;;;;;11.70;25.78;102349.22;5074103;28;20108;-74
2022/03/24 00:27:48;;;;;;;53.58;27.17;;;;;;;11.50;25.83;102344.63;5072558;28;20071;-75
2022/03/24 00:30:15;;;;;;;58.80;28.27;;;;;;;11.51;26.09;102346.31;5073999;28;20076;-74
2022/03/24 00:32:41;;;;;;;50.85;26.45;;;;;;;11.49;26.10;102348.28;5074564;28;20135;-74
2022/03/24 00:35:08;;;;;;;51.17;26.83;;;;;;;11.62;25.97;102347.16;5076761;28;20045;-74
2022/03/24 00:37:34;;;;;;;52.15;26.65;;;;;;;11.66;25.92;102339.72;5082782;28;20094;-75
2022/03/24 00:40:06;;;;;;;46.92;26.20;;;;;;;11.62;26.01;102348.97;5093761;28;20078;-73
2022/03/24 00:42:36;;;;;;;57.67;26.70;;;;;;;11.65;26.00;102343.31;5076354;28;20048;-74
2022/03/24 00:45:07;;;;;;;55.20;28.27;;;;;;;11.73;25.75;102346.28;5073057;28;20048;-74
2022/03/24 00:47:34;;;;;;;56.40;27.98;;;;;;;11.76;25.88;102340.66;5072567;28;20060;-75
2022/03/24 00:50:07;;;;;;;51.00;26.63;;;;;;;11.89;25.54;102340.47;5072400;28;20090;-74
2022/03/24 00:52:41;;;;;;;47.78;26.95;;;;;;;11.69;25.89;102343.00;5071728;28;20048;-74
2022/03/24 00:55:12;;;;;;;48.70;25.77;;;;;;;11.67;25.83;102341.41;5073077;28;20524;-75
2022/03/24 00:57:40;;;;;;;47.80;26.52;;;;;;;11.76;25.73;102343.34;5077017;28;20507;-74
2022/03/24 01:00:08;;;;;;;53.20;28.02;;;;;;;11.62;26.04;102333.72;5088313;28;20071;-73
2022/03/24 01:02:37;;;;;;;55.33;27.08;;;;;;;11.65;26.11;102336.13;5072534;28;20132;-74
2022/03/24 01:05:06;;;;;;;50.05;26.23;;;;;;;11.57;26.07;102343.13;5075526;28;20071;-74
2022/03/24 01:07:34;;;;;;;54.17;26.38;;;;;;;11.48;26.26;102343.88;5093067;28;20123;-74
2022/03/24 01:10:00;;;;;;;56.05;28.40;;;;;;;11.53;26.27;102344.38;5092395;28;20048;-73
2022/03/24 01:12:27;;;;;;;54.67;27.90;;;;;;;11.58;26.26;102339.44;5094971;28;20063;-73
2022/03/24 01:14:55;;;;;;;51.40;27.45;;;;;;;11.54;26.36;102341.53;5079303;28;20064;-74
2022/03/24 01:17:23;;;;;;;51.10;26.92;;;;;;;11.44;26.58;102341.44;5077417;28;20056;-74
2022/03/24 01:19:50;;;;;;;54.88;28.52;;;;;;;11.40;26.70;102344.50;5086866;28;20059;-74
2022/03/24 01:22:16;;;;;;;53.45;27.48;;;;;;;11.46;26.49;102334.13;5095102;28;20105;-73
2022/03/24 01:24:43;;;;;;;48.97;26.77;;;;;;;11.25;26.75;102341.25;5083620;28;20127;-73
2022/03/24 01:27:10;;;;;;;50.40;26.48;;;;;;;11.33;26.77;102340.63;5088359;28;20048;-74
2022/03/24 01:29:37;;;;;;;60.55;29.13;;;;;;;11.15;27.10;102340.28;5092510;28;20123;-73
2022/03/24 01:32:04;;;;;;;55.75;28.00;;;;;;;11.25;26.83;102335.88;5088785;28;20104;-74
2022/03/24 01:34:30;;;;;;;56.65;29.00;;;;;;;11.37;26.63;102332.19;5072892;28;20044;-73
2022/03/24 01:36:57;;;;;;;54.05;28.13;;;;;;;11.15;26.91;102332.25;5072883;28;20479;-74
2022/03/24 01:39:23;;;;;;;60.60;28.67;;;;;;;11.13;27.33;102331.50;5072890;28;20086;-74
2022/03/24 01:41:50;;;;;;;59.40;29.20;;;;;;;11.07;27.10;102332.03;5072150;28;20048;-73
2022/03/24 01:44:18;;;;;;;54.92;28.75;;;;;;;11.18;27.06;102334.69;5072489;28;20049;-74
2022/03/24 01:46:59;;;;;;;57.10;29.52;;;;;;;10.98;27.36;102331.75;5072918;28;20040;-74
2022/03/24 01:49:27;;;;;;;53.80;28.20;;;;;;;10.84;27.63;102329.34;5072140;28;20139;-74
2022/03/24 01:51:55;;;;;;;55.33;27.83;;;;;;;10.87;27.46;102326.41;5082368;28;20075;-74
2022/03/24 01:54:23;;;;;;;58.35;28.23;;;;;;;10.74;27.73;102325.69;5065494;28;20101;-73
2022/03/24 01:56:51;;;;;;;55.03;27.25;;;;;;;10.77;27.72;102316.53;5070691;28;20076;-74
2022/03/24 01:59:19;;;;;;;55.22;28.20;;;;;;;10.78;27.74;102327.13;5085259;28;20125;-74
2022/03/24 02:01:46;;;;;;;58.45;28.67;;;;;;;10.71;27.92;102313.34;5092119;28;20425;-74
2022/03/24 02:04:15;;;;;;;55.38;29.25;;;;;;;10.69;27.94;102319.84;5096398;28;20130;-74
2022/03/24 02:07:22;;;;;;;54.38;28.02;;;;;;;10.83;27.77;102310.69;5092742;28;20055;-74
2022/03/24 02:09:49;;;;;;;57.70;27.83;;;;;;;10.80;27.88;102322.50;5077433;28;20397;-74
2022/03/24 02:12:15;;;;;;;61.65;28.52;;;;;;;10.63;27.98;102317.63;5073538;28;20127;-73
2022/03/24 02:14:43;;;;;;;56.03;28.23;;;;;;;10.62;28.12;102322.16;5077461;28;20047;-72
2022/03/24 02:17:09;;;;;;;55.03;28.02;;;;;;;10.71;27.85;102315.19;5084184;28;20447;-73
2022/03/24 02:19:36;;;;;;;56.47;28.88;;;;;;;10.59;28.04;102305.44;5097006;28;20055;-73
2022/03/24 02:22:23;;;;;;;66.05;29.98;;;;;;;10.57;28.07;102307.38;5096878;28;20072;-73
2022/03/24 02:24:50;;;;;;;61.35;28.65;;;;;;;10.67;28.13;102314.56;5076909;28;20051;-72
2022/03/24 02:27:17;;;;;;;54.67;27.85;;;;;;;10.64;28.26;102309.44;5076079;28;20056;-72
2022/03/24 02:29:48;;;;;;;57.33;29.08;;;;;;;10.62;28.00;102308.72;5075305;28;20123;-73
2022/03/24 02:32:23;;;;;;;61.22;29.92;;;;;;;10.66;28.22;102307.50;5084392;28;20456;-72
2022/03/24 02:34:51;;;;;;;56.88;27.23;;;;;;;10.56;28.42;102298.47;5096261;28;20462;-73
2022/03/24 02:37:20;;;;;;;59.65;28.63;;;;;;;10.56;28.42;102297.63;5081719;28;20090;-73
2022/03/24 02:39:49;;;;;;;58.55;29.23;;;;;;;10.49;28.60;102302.59;5090187;28;20136;-73
2022/03/24 02:42:21;;;;;;;55.40;27.70;;;;;;;10.53;28.66;102303.22;5072166;28;20044;-73
2022/03/24 02:44:58;;;;;;;58.83;29.17;;;;;;;10.57;28.55;102307.38;5084309;28;20127;-73
2022/03/24 02:47:25;;;;;;;59.92;29.45;;;;;;;10.43;28.70;102298.53;5094730;28;20044;-73
2022/03/24 02:49:53;;;;;;;51.63;27.20;;;;;;;10.33;28.91;102294.88;5094465;28;20067;-73
2022/03/24 02:52:20;;;;;;;55.55;27.33;;;;;;;10.35;29.00;102294.78;5091174;28;20078;-73
2022/03/24 02:54:47;;;;;;;56.22;27.63;;;;;;;10.39;28.81;102301.59;5073310;28;20044;-73
2022/03/24 02:57:14;;;;;;;63.65;29.60;;;;;;;10.31;29.00;102302.22;5072282;28;20561;-73
2022/03/24 02:59:40;;;;;;;64.68;29.02;;;;;;;10.22;29.23;102303.75;5072758;28;20412;-73
2022/03/24 03:02:13;;;;;;;54.17;29.27;;;;;;;10.10;29.43;102315.47;5071195;28;20123;-73
2022/03/24 03:04:42;;;;;;;53.72;27.90;;;;;;;9.96;29.59;102312.97;5072452;28;20451;-73
2022/03/24 03:07:09;;;;;;;58.47;28.92;;;;;;;9.84;29.94;102312.06;5072960;28;20118;-73
2022/03/24 03:09:37;;;;;;;58.80;29.75;;;;;;;9.92;29.71;102316.84;5076939;28;20048;-73
2022/03/24 03:12:05;;;;;;;61.38;28.92;;;;;;;9.93;29.82;102308.69;5092287;28;20072;-73
2022/03/24 03:14:31;;;;;;;55.50;29.35;;;;;;;9.85;30.07;102319.13;5091559;28;20126;-72
2022/03/24 03:16:58;;;;;;;60.92;29.50;;;;;;;9.63;30.35;102311.03;5093658;28;20076;-73
2022/03/24 03:19:25;;;;;;;57.28;29.75;;;;;;;9.69;30.34;102314.09;5091378;28;20476;-72
2022/03/24 03:21:52;;;;;;;62.88;28.42;;;;;;;9.79;30.19;102322.31;5093633;28;20066;-72
2022/03/24 03:24:22;;;;;;;58.42;29.45;;;;;;;9.88;30.21;102318.06;5091576;28;20040;-72
2022/03/24 03:26:50;;;;;;;54.25;28.30;;;;;;;9.96;30.02;102323.72;5094127;28;20447;-72
2022/03/24 03:29:17;;;;;;;57.25;29.25;;;;;;;9.73;30.15;102323.63;5080221;28;20406;-72
2022/03/24 03:31:44;;;;;;;57.22;29.27;;;;;;;9.65;30.64;102322.50;5076727;28;20094;-72
2022/03/24 03:34:11;;;;;;;54.78;27.90;;;;;;;9.59;30.67;102322.94;5083706;28;20139;-72
2022/03/24 03:36:37;;;;;;;57.78;29.50;;;;;;;9.69;30.75;102326.66;5089574;28;20123;-72
2022/03/24 03:39:07;;;;;;;58.13;29.80;;;;;;;9.67;30.56;102317.84;5090427;28;20059;-72
2022/03/24 03:41:36;;;;;;;59.40;30.23;;;;;;;9.45;30.73;102323.97;5092817;28;20434;-72
2022/03/24 03:44:03;;;;;;;62.28;30.17;;;;;;;9.60;30.67;102328.19;5068024;28;20052;-72
2022/03/24 03:46:30;;;;;;;65.28;30.95;;;;;;;9.28;31.59;102317.19;5072735;28;20127;-73
2022/03/24 03:48:56;;;;;;;55.25;29.85;;;;;;;9.55;30.70;102325.00;5072204;28;20419;-72
2022/03/24 03:51:23;;;;;;;63.03;29.92;;;;;;;9.45;31.01;102323.97;5079927;28;20132;-73
2022/03/24 03:53:49;;;;;;;62.38;28.38;;;;;;;9.38;31.09;102325.41;5084530;28;20119;-73
2022/03/24 03:56:16;;;;;;;60.88;30.10;;;;;;;9.37;31.25;102327.22;5090256;28;22089;-73
2022/03/24 03:58:42;;;;;;;58.47;30.02;;;;;;;9.35;31.21;102323.78;5073194;28;20123;-72
2022/03/24 04:01:09;;;;;;;58.17;30.55;;;;;;;9.35;31.32;102317.59;5070250;28;20048;-72
2022/03/24 04:03:38;;;;;;;60.80;30.30;;;;;;;9.17;31.91;102322.44;5071260;28;20546;-72
2022/03/24 04:06:11;;;;;;;59.67;30.88;;;;;;;9.37;31.56;102319.19;5079459;28;20082;-73
2022/03/24 04:08:40;;;;;;;66.53;32.20;;;;;;;9.19;31.65;102317.81;5091932;28;20113;-72
2022/03/24 04:11:07;;;;;;;59.58;30.27;;;;;;;9.25;32.05;102322.75;5092594;28;20048;-72
2022/03/24 04:13:35;;;;;;;59.38;31.23;;;;;;;9.42;31.73;102325.03;5092078;28;20044;-72
2022/03/24 04:16:02;;;;;;;62.85;30.88;;;;;;;9.26;31.77;102327.13;5092341;28;20079;-73
2022/03/24 04:18:29;;;;;;;63.88;33.22;;;;;;;9.12;32.04;102324.56;5073750;28;20097;-72
2022/03/24 04:20:56;;;;;;;61.97;30.13;;;;;;;9.08;32.19;102321.28;5087001;28;20122;-72
2022/03/24 04:23:23;;;;;;;70.03;34.13;;;;;;;9.05;32.38;102324.16;5082818;28;20044;-72
2022/03/24 04:25:51;;;;;;;63.28;32.25;;;;;;;9.02;32.56;102322.59;5071060;28;20041;-72
2022/03/24 04:28:17;;;;;;;67.72;34.95;;;;;;;9.18;32.24;102332.16;5072096;28;20098;-73
2022/03/24 04:30:44;;;;;;;69.30;35.35;;;;;;;8.88;32.93;102320.03;5072008;28;20036;-73
2022/03/24 04:33:10;;;;;;;68.38;33.58;;;;;;;8.84;32.78;102329.25;5072420;28;20052;-73
2022/03/24 04:35:37;;;;;;;66.68;35.33;;;;;;;8.82;33.02;102326.69;5071970;28;20072;-73
2022/03/24 04:38:04;;;;;;;65.10;35.25;;;;;;;8.95;32.82;102323.97;5071907;28;20055;-73
2022/03/24 04:40:31;;;;;;;64.13;33.00;;;;;;;8.75;33.42;102327.25;5071879;28;20127;-73
2022/03/24 04:42:58;;;;;;;66.57;34.97;;;;;;;8.81;33.31;102332.97;5054372;28;20048;-72
2022/03/24 04:45:27;;;;;;;63.90;33.40;;;;;;;8.69;33.61;102327.66;5072021;28;20158;-72
2022/03/24 04:47:54;;;;;;;64.18;33.00;;;;;;;8.71;33.48;102329.28;5072050;28;20052;-73
2022/03/24 04:50:20;;;;;;;67.95;34.50;;;;;;;8.65;33.91;102326.19;5071444;28;20049;-72
2022/03/24 04:52:47;;;;;;;69.07;36.08;;;;;;;8.56;34.00;102325.84;5071064;28;20067;-73
2022/03/24 04:55:14;;;;;;;65.15;33.88;;;;;;;8.85;33.17;102315.78;5071245;28;20500;-73
2022/03/24 04:57:42;;;;;;;72.63;35.28;;;;;;;8.70;33.79;102316.00;5082007;28;20127;-72
2022/03/24 05:00:10;;;;;;;70.47;34.50;;;;;;;8.82;33.42;102310.63;5091922;28;20044;-73
2022/03/24 05:02:38;;;;;;;74.05;35.17;;;;;;;8.77;33.62;102317.25;5092479;28;20543;-73
2022/03/24 05:05:06;;;;;;;68.20;35.75;;;;;;;8.81;33.69;102314.25;5091647;28;20504;-73
2022/03/24 05:07:32;;;;;;;73.05;36.13;;;;;;;8.74;33.55;102312.97;5091602;28;20048;-73
2022/03/24 05:09:59;;;;;;;68.22;35.28;;;;;;;8.74;33.62;102309.44;5092364;28;20404;-73
2022/03/24 05:12:25;;;;;;;70.20;36.92;;;;;;;8.70;33.78;102319.53;5091674;28;20097;-73
2022/03/24 05:14:52;;;;;;;68.72;35.55;;;;;;;8.81;33.71;102310.72;5091273;28;20119;-73
2022/03/24 05:17:18;;;;;;;71.38;35.53;;;;;;;8.81;33.55;102316.06;5090094;28;20073;-73
2022/03/24 05:19:48;;;;;;;68.95;36.25;;;;;;;8.93;33.32;102317.88;5060380;28;20123;-72
2022/03/24 05:22:15;;;;;;;66.13;35.72;;;;;;;8.72;33.75;102325.63;5082506;28;20044;-73
2022/03/24 05:24:42;;;;;;;63.13;34.65;;;;;;;8.81;33.90;102314.25;5052708;28;20485;-72
2022/03/24 05:27:08;;;;;;;72.20;36.17;;;;;;;8.94;33.39;102324.09;5083783;28;20079;-73
2022/03/24 05:29:35;;;;;;;76.07;37.60;;;;;;;9.05;33.39;102316.13;5090813;28;20067;-73
2022/03/24 05:32:01;;;;;;;71.20;35.47;;;;;;;8.98;33.33;102318.41;5091239;28;20083;-72
2022/03/24 05:34:28;;;;;;;69.88;35.15;;;;;;;8.91;33.61;102335.00;5089173;28;20083;-72
2022/03/24 05:36:54;;;;;;;67.43;36.47;;;;;;;8.96;33.25;102319.50;5070410;28;20123;-73
2022/03/24 05:39:21;;;;;;;65.20;34.35;;;;;;;9.16;33.12;102332.31;5071153;28;20135;-73
2022/03/24 05:41:47;;;;;;;67.90;36.50;;;;;;;8.99;33.28;102322.81;5070995;28;20127;-73
2022/03/24 05:44:14;;;;;;;67.85;35.92;;;;;;;8.95;33.67;102332.00;5070126;28;20446;-73
2022/03/24 05:46:45;;;;;;;55.27;26.90;;;;;;;9.09;33.46;102322.97;5071270;28;20376;-73
2022/03/24 05:49:14;;;;;;;64.78;35.47;;;;;;;8.95;33.52;102321.28;5070518;28;20370;-72
2022/03/24 05:51:45;;;;;;;72.82;37.25;;;;;;;9.02;33.36;102327.94;5075309;28;20044;-72
2022/03/24 05:54:14;;;;;;;70.50;36.75;;;;;;;8.97;33.45;102330.06;5073269;28;20075;-72
2022/03/24 05:56:41;;;;;;;67.53;36.97;;;;;;;9.11;33.49;102328.22;5090951;28;20087;-72
2022/03/24 05:59:08;;;;;;;74.75;38.80;;;;;;;9.06;33.50;102324.06;5090441;28;20433;-72
2022/03/24 06:01:36;;;;;;;73.40;37.90;;;;;;;8.85;33.69;102330.97;5089896;28;20071;-73
2022/03/24 06:04:03;;;;;;;74.07;39.13;;;;;;;8.87;33.66;102330.84;5090623;28;20503;-73
2022/03/24 06:06:34;;;;;;;71.18;39.28;;;;;;;9.04;33.52;102330.50;5090711;28;20135;-73
2022/03/24 06:09:04;;;;;;;75.47;39.65;;;;;;;9.07;33.62;102339.16;5089522;28;20113;-72
2022/03/24 06:11:31;;;;;;;70.53;37.63;;;;;;;9.29;33.33;102340.31;5089770;28;20071;-73
2022/03/24 06:13:58;;;;;;;74.10;39.78;;;;;;;9.24;33.34;102342.47;5090727;28;20052;-73
2022/03/24 06:16:24;;;;;;;69.40;37.95;;;;;;;9.41;33.44;102343.91;5090751;28;20040;-72
2022/03/24 06:18:51;;;;;;;76.38;38.10;;;;;;;9.33;33.73;102341.78;5087254;28;20418;-73
2022/03/24 06:21:17;;;;;;;75.53;38.80;;;;;;;9.57;33.15;102334.59;5091221;28;20156;-73
2022/03/24 06:23:44;;;;;;;74.95;39.38;;;;;;;9.32;33.42;102345.44;5090355;28;20048;-72
2022/03/24 06:26:10;;;;;;;73.13;38.80;;;;;;;9.65;32.98;102342.09;5082995;28;20053;-72
2022/03/24 06:28:37;;;;;;;78.53;38.08;;;;;;;9.70;32.75;102345.28;5070459;28;20132;-73
2022/03/24 06:31:05;;;;;;;80.63;39.28;;;;;;;10.19;32.08;102346.91;5070823;28;20158;-73
2022/03/24 06:33:31;;;;;;;75.53;37.60;;;;;;;9.50;32.91;102352.09;5070600;28;20548;-72
2022/03/24 06:35:58;;;;;;;82.57;40.88;;;;;;;9.80;32.35;102351.66;5070360;28;20049;-73
2022/03/24 06:38:24;;;;;;;79.05;40.08;;;;;;;10.32;31.83;102354.03;5070211;28;20044;-72
2022/03/24 06:40:51;;;;;;;81.95;38.90;;;;;;;10.15;31.71;102355.31;5070074;28;20405;-72
2022/03/24 06:43:17;;;;;;;73.57;38.53;;;;;;;10.72;31.04;102344.59;5069045;28;20069;-73
2022/03/24 06:45:44;;;;;;;72.43;38.28;;;;;;;10.14;31.59;102350.94;5069908;28;20079;-73
2022/03/24 06:48:10;;;;;;;75.88;37.35;;;;;;;10.24;31.56;102350.09;5069642;28;20124;-73
2022/03/24 06:50:37;;;;;;;80.25;40.28;;;;;;;10.42;31.54;102355.88;5073366;28;20049;-73
2022/03/24 06:53:04;;;;;;;85.07;38.45;;;;;;;10.18;31.87;102355.94;5074499;28;20139;-73
2022/03/24 06:55:31;;;;;;;73.88;37.88;;;;;;;10.95;30.47;102353.50;5057680;28;20123;-73
2022/03/24 06:57:57;;;;;;;78.68;39.78;;;;;;;10.45;31.23;102358.31;5083976;28;20098;-74
2022/03/24 07:00:24;;;;;;;75.72;38.92;;;;;;;10.44;31.45;102359.31;5087748;28;20097;-74
2022/03/24 07:02:51;;;;;;;70.97;38.85;;;;;;;10.89;30.51;102361.19;5097294;28;20089;-74
2022/03/24 07:05:17;;;;;;;75.80;38.97;;;;;;;11.32;29.97;102357.72;5076820;28;20076;-73
2022/03/24 07:07:44;;;;;;;76.00;38.55;;;;;;;11.93;28.87;102347.28;5075882;28;20131;-73
2022/03/24 07:10:11;;;;;;;75.30;39.13;;;;;;;11.19;29.95;102358.72;5074648;28;20045;-73
2022/03/24 07:12:38;;;;;;;75.55;40.38;;;;;;;11.59;29.50;102355.47;5082395;28;20044;-74
2022/03/24 07:15:10;;;;;;;66.03;38.63;;;;;;;11.98;28.84;102353.13;5093423;28;20498;-74
2022/03/24 07:17:36;;;;;;;70.15;39.55;;;;;;;12.89;27.90;102362.34;5094279;28;20488;-74
2022/03/24 07:20:04;;;;;;;81.18;39.67;;;;;;;13.48;26.72;102363.38;5094349;28;20052;-74
2022/03/24 07:22:32;;;;;;;78.07;39.38;;;;;;;13.46;26.68;102362.69;5093960;28;20122;-75
2022/03/24 07:24:59;;;;;;;74.00;39.08;;;;;;;13.73;26.33;102357.44;5093469;28;20131;-75
2022/03/24 07:27:26;;;;;;;68.13;38.33;;;;;;;14.03;25.94;102359.16;5094074;28;20144;-75
2022/03/24 07:29:58;;;;;;;72.25;38.65;;;;;;;13.40;26.68;102364.06;5083987;28;20056;-74
2022/03/24 07:32:24;;;;;;;74.28;38.20;;;;;;;13.24;27.03;102364.59;5074293;28;20075;-75
2022/03/24 07:34:51;;;;;;;77.45;39.42;;;;;;;13.10;27.30;102364.97;5055397;28;20147;-74
2022/03/24 07:37:17;;;;;;;77.57;40.20;;;;;;;13.20;27.11;102360.47;5060130;23;20099;-75
2022/03/24 07:39:43;;;;;;;78.95;39.58;;;;;;;13.73;26.57;102367.38;5032539;28;20076;-75
2022/03/24 07:42:10;;;;;;;69.82;37.70;;;;;;;14.46;25.72;102363.25;5034169;28;20418;-75
2022/03/24 07:44:36;;;;;;;68.38;37.78;;;;;;;15.22;24.41;102362.22;5014914;28;20049;-75
2022/03/24 07:47:03;;;;;;;72.18;39.55;;;;;;;15.12;24.36;102367.72;5033563;28;20048;-74
2022/03/24 07:49:30;;;;;;;70.97;40.28;;;;;;;15.66;23.85;102370.53;5034290;28;20458;-74
2022/03/24 07:51:57;;;;;;;68.32;38.70;;;;;;;16.76;22.47;102356.53;5034368;28;20557;-75
2022/03/24 07:54:55;;;;;;;70.70;39.90;;;;;;;17.27;21.81;102362.84;5027406;28;20062;-74
2022/03/24 07:57:23;;;;;;;79.05;39.90;;;;;;;17.46;21.68;102356.31;5043126;28;20064;-74
2022/03/24 07:59:49;;;;;;;74.43;38.50;;;;;;;17.40;21.76;102361.53;5032963;28;20091;-75
2022/03/24 08:02:17;;;;;;;72.07;39.35;;;;;;;18.14;20.94;102360.63;5034364;28;20045;-74
2022/03/24 08:04:45;;;;;;;73.43;40.40;;;;;;;17.19;21.64;102365.50;5034134;28;20041;-74
2022/03/24 08:07:11;;;;;;;70.28;40.33;;;;;;;16.59;22.40;102362.84;5032334;28;20058;-74
2022/03/24 08:09:38;;;;;;;65.45;39.25;;;;;;;16.11;22.94;102364.16;5033931;28;20045;-75
2022/03/24 08:12:09;;;;;;;66.32;39.85;;;;;;;16.45;22.83;102358.00;5033585;28;20456;-75
2022/03/24 08:14:36;;;;;;;62.15;39.60;;;;;;;17.20;22.17;102366.34;5033087;28;20131;-74
2022/03/24 08:17:03;;;;;;;71.75;40.78;;;;;;;18.01;20.93;102358.41;5034073;28;20069;-74
2022/03/24 08:19:29;;;;;;;70.63;39.05;;;;;;;17.35;21.57;102362.03;5033778;28;20540;-74
2022/03/24 08:21:56;;;;;;;76.60;41.08;;;;;;;17.07;22.19;102361.41;5034374;28;20050;-74
2022/03/24 08:24:22;;;;;;;65.40;37.47;;;;;;;18.05;20.92;102362.47;5034996;28;20095;-76
2022/03/24 08:26:49;;;;;;;71.63;38.97;;;;;;;19.47;19.50;102355.47;5035347;28;20481;-77
2022/03/24 08:29:15;;;;;;;69.35;41.42;;;;;;;19.75;19.17;102360.41;5035145;28;20056;-76
2022/03/24 08:31:42;;;;;;;68.13;39.25;;;;;;;19.28;19.68;102364.94;5026138;28;20063;-77
2022/03/24 08:34:09;;;;;;;69.45;40.35;;;;;;;18.79;19.94;102373.25;5047954;28;20072;-77
2022/03/24 08:36:35;;;;;;;64.32;38.58;;;;;;;19.37;19.59;102363.00;5033049;28;20057;-77
2022/03/24 08:39:02;;;;;;;74.28;40.63;;;;;;;20.00;18.86;102359.16;5034683;28;20397;-77
2022/03/24 08:41:29;;;;;;;68.55;39.83;;;;;;;19.80;18.94;102366.19;5033636;28;20053;-77
2022/03/24 08:43:55;;;;;;;67.22;39.42;;;;;;;19.20;19.24;102368.53;5028939;28;20100;-77
2022/03/24 08:46:24;;;;;;;70.55;42.05;;;;;;;20.08;18.84;102366.47;5023922;28;20060;-77
2022/03/24 08:48:53;;;;;;;67.40;38.50;;;;;;;19.72;18.67;102369.78;5021971;28;20128;-77
2022/03/24 08:51:20;;;;;;;62.92;36.47;;;;;;;19.99;18.47;102367.53;5018389;28;20057;-77
2022/03/24 08:53:47;;;;;;;72.38;38.08;;;;;;;19.35;19.05;102371.34;5024403;28;20045;-77
2022/03/24 08:56:14;;;;;;;66.78;38.03;;;;;;;19.70;18.67;102367.25;5012991;28;20461;-77
2022/03/24 08:58:42;;;;;;;69.50;37.22;;;;;;;19.38;18.94;102375.56;5013126;28;20065;-77
2022/03/24 09:01:10;;;;;;;63.88;36.92;;;;;;;19.21;18.82;102380.28;5032513;28;20517;-77
2022/03/24 09:03:38;;;;;;;64.22;36.30;;;;;;;19.13;18.91;102388.47;5031630;28;20052;-77
2022/03/24 09:06:05;;;;;;;65.55;35.78;;;;;;;19.32;18.37;102382.59;5031824;28;20049;-76
2022/03/24 09:08:32;;;;;;;53.85;33.30;;;;;;;19.69;18.00;102384.63;5020478;28;20072;-77
2022/03/24 09:10:58;;;;;;;63.17;35.22;;;;;;;19.44;18.29;102383.03;5026931;28;20129;-77
2022/03/24 09:13:26;;;;;;;67.57;36.05;;;;;;;19.63;17.83;102384.47;5013144;28;20088;-77
2022/03/24 09:15:53;;;;;;;55.67;34.58;;;;;;;20.29;17.22;102379.38;5027463;28;20104;-76
2022/03/24 09:18:20;;;;;;;62.70;36.92;;;;;;;19.78;17.86;102382.69;5029500;28;20389;-76
2022/03/24 09:20:47;;;;;;;64.93;36.70;;;;;;;20.91;16.86;102377.19;5014505;28;20077;-77
2022/03/24 09:23:14;;;;;;;52.60;34.40;;;;;;;20.09;17.19;102381.75;5014207;28;20046;-76
2022/03/24 09:25:43;;;;;;;69.28;37.03;;;;;;;20.50;17.37;102379.53;5032463;28;20045;-76
2022/03/24 09:28:10;;;;;;;58.47;35.38;;;;;;;20.05;17.45;102375.84;5031618;28;20068;-76
2022/03/24 09:30:37;;;;;;;55.38;31.98;;;;;;;20.87;16.41;102383.22;5028006;28;20053;-76
2022/03/24 09:33:04;;;;;;;55.80;31.13;;;;;;;21.03;15.86;102382.16;5033154;28;20183;-77
2022/03/24 09:35:31;;;;;;;55.00;31.38;;;;;;;21.43;15.38;102383.56;5033045;28;20385;-77
2022/03/24 09:37:58;;;;;;;55.63;33.20;;;;;;;21.05;15.92;102385.56;5027753;28;20061;-76
2022/03/24 09:40:25;;;;;;;50.15;30.92;;;;;;;21.69;15.08;102383.00;5012009;28;20053;-76
2022/03/24 09:42:51;;;;;;;51.03;31.23;;;;;;;22.28;14.90;102387.34;5015674;28;20069;-76
2022/03/24 09:45:19;;;;;;;52.55;32.85;;;;;;;21.70;15.25;102384.69;5012783;28;20128;-78
2022/03/24 09:47:46;;;;;;;59.35;33.47;;;;;;;21.94;15.12;102383.47;5030835;28;20045;-74
2022/03/24 09:50:14;;;;;;;49.50;30.40;;;;;;;21.26;15.48;102385.66;5029598;28;20049;-75
2022/03/24 09:52:41;;;;;;;47.50;29.73;;;;;;;21.35;14.82;102381.75;5021017;28;20095;-74
2022/03/24 09:55:16;;;;;;;57.08;30.27;;;;;;;21.32;15.00;102389.50;5017148;28;20594;-75
2022/03/24 09:57:45;;;;;;;45.70;30.67;;;;;;;22.17;14.23;102385.16;5012087;28;20050;-75
2022/03/24 10:00:31;;;;;;;54.08;32.65;;;;;;;22.88;14.25;102382.31;5011357;28;20050;-74
2022/03/24 10:03:16;;;;;;;52.38;34.35;;;;;;;23.77;13.14;102375.94;5011430;28;20514;-74
2022/03/24 10:05:54;;;;;;;56.22;30.05;;;;;;;23.76;12.93;102364.16;5011283;28;20084;-74
2022/03/24 10:08:22;;;;;;;40.47;26.40;;;;;;;24.18;12.22;102368.38;5020617;28;20050;-74
2022/03/24 10:10:48;;;;;;;44.35;24.75;;;;;;;24.30;11.60;102376.81;5022615;28;20049;-74
2022/03/24 10:13:54;;;;;;;45.70;25.30;;;;;;;24.61;11.23;102369.81;5022575;28;20053;-74
2022/03/24 10:16:32;;;;;;;40.47;25.15;;;;;;;23.40;12.02;102364.44;4991410;28;20050;-74
2022/03/24 10:19:05;;;;;;;39.33;24.98;;;;;;;22.69;12.55;102371.06;5003018;28;20512;-73
2022/03/24 10:21:33;;;;;;;37.75;25.00;;;;;;;22.55;12.76;102374.75;5022508;28;20046;-73
2022/03/24 10:24:08;;;;;;;47.83;26.20;;;;;;;22.87;12.72;102370.50;5018032;28;20062;-73
2022/03/24 10:26:49;;;;;;;37.17;22.23;;;;;;;23.11;11.85;102373.78;5009048;28;20054;-75
2022/03/24 10:29:18;;;;;;;34.20;20.15;;;;;;;22.41;11.51;102364.75;5037525;28;20049;-74
2022/03/24 10:31:51;;;;;;;39.67;22.33;;;;;;;21.21;12.83;102373.63;5062004;28;20105;-75
2022/03/24 10:34:32;;;;;;;41.15;22.40;;;;;;;21.44;14.77;102365.28;5070976;28;20044;-69
2022/03/24 10:37:12;;;;;;;45.58;23.85;;;;;;;21.85;13.51;102358.19;5061834;28;20041;-69
2022/03/24 10:39:59;;;;;;;39.38;22.70;;;;;;;22.58;13.35;102360.69;5055852;28;20473;-69
2022/03/24 10:42:28;;;;;;;34.90;24.73;;;;;;;21.52;13.97;102354.22;5066382;28;20480;-70
2022/03/24 10:45:09;;;;;;;36.92;22.10;;;;;;;22.26;15.43;102351.19;5059706;28;20051;-69
2022/03/24 10:47:40;;;;;;;43.33;24.10;;;;;;;21.46;14.31;102360.47;5074433;28;20495;-69
2022/03/24 10:50:42;;;;;;;35.92;24.33;;;;;;;21.26;13.80;102355.63;5060703;28;20115;-69
2022/03/24 10:53:15;;;;;;;43.72;22.20;;;;;;;20.85;13.43;102356.13;5043835;28;20382;-69
2022/03/24 10:55:42;;;;;;;35.13;18.52;;;;;;;21.35;13.72;102362.66;5055099;28;20069;-68
2022/03/24 10:58:14;;;;;;;40.90;21.02;;;;;;;21.46;13.00;102357.72;5054810;28;20049;-68
2022/03/24 11:00:41;;;;;;;36.50;20.73;;;;;;;20.62;13.58;102350.75;5055012;28;20049;-68
2022/03/24 11:03:08;;;;;;;33.80;17.90;;;;;;;22.09;13.55;102340.53;5054728;28;20052;-68
2022/03/24 11:05:36;;;;;;;33.95;18.77;;;;;;;22.25;13.92;102338.53;5054747;28;20465;-69
2022/03/24 11:08:08;;;;;;;30.77;18.08;;;;;;;21.91;14.23;102351.09;5055287;28;20053;-69
2022/03/24 11:10:42;;;;;;;;;;;;;;;22.11;12.94;102343.03;5055646;28;20053;-68
2022/03/24 11:13:13;;;;;;;36.25;18.85;;;;;;;22.46;12.64;102338.47;5053067;28;20352;-67
2022/03/24 11:15:41;;;;;;;35.70;19.45;;;;;;;22.55;12.69;102339.19;5054230;28;20077;-68
2022/03/24 11:18:09;;;;;;;32.30;18.83;;;;;;;22.99;13.32;102329.75;5054404;28;20489;-69